Terminal Aerodrome Forecast
Issued by NWS Northern Indiana

Home | Current Version | Previous Version | Graphics & Text | Print | Product List | Glossary On
Versions: 1 2 3 4 5 6 7 8 9 10 11 12
000
FTUS43 KIWX 211723
TAFFWA
TAF
KFWA 211723Z 2118/2218 24016G26KT P6SM SCT120 BKN250
     FM212200 28013KT P6SM -SHRA OVC030
     FM220000 30010KT P6SM OVC045
     FM220400 30007KT P6SM SCT070=

USA.gov is the U.S. government's official web portal to all federal, state and local government web resources and services.